createdAt,value
2022-08-17T00:01:45.523Z,32.92
2022-08-17T00:04:20.650Z,37.42
2022-08-17T00:06:49.688Z,46.20
2022-08-17T00:09:18.959Z,40.85
2022-08-17T00:12:40.660Z,41.50
2022-08-17T00:14:36.289Z,39.80
2022-08-17T00:17:04.918Z,34.00
2022-08-17T00:19:33.100Z,27.73
2022-08-17T00:22:32.106Z,26.65
2022-08-17T00:24:50.990Z,27.52
2022-08-17T00:27:18.509Z,24.98
2022-08-17T00:29:46.209Z,29.90
2022-08-17T00:33:14.210Z,32.55
2022-08-17T00:35:03.820Z,36.30
2022-08-17T00:37:31.227Z,45.53
2022-08-17T00:39:58.827Z,42.72
2022-08-17T00:42:30.775Z,59.22
2022-08-17T00:44:58.961Z,46.40
2022-08-17T00:47:26.297Z,40.30
2022-08-17T00:49:54.193Z,81.43
2022-08-17T00:52:23.880Z,103.85
2022-08-17T00:54:54.147Z,99.18
2022-08-17T00:57:26.518Z,71.15
2022-08-17T01:00:03.269Z,94.70
2022-08-17T01:02:42.067Z,118.13
2022-08-17T01:05:16.627Z,202.13
2022-08-17T01:07:46.928Z,130.20
2022-08-17T01:10:59.824Z,139.95
2022-08-17T01:13:03.788Z,57.45
2022-08-17T01:15:35.168Z,62.72
2022-08-17T01:18:02.868Z,59.72
2022-08-17T01:20:30.158Z,55.10
2022-08-17T01:23:10.257Z,70.95
2022-08-17T01:25:43.867Z,57.47
2022-08-17T01:28:52.461Z,61.50
2022-08-17T01:31:04.499Z,107.32
2022-08-17T01:33:31.927Z,121.43
2022-08-17T01:36:00.812Z,159.25
2022-08-17T01:38:31.990Z,101.35
2022-08-17T01:41:06.120Z,105.57
2022-08-17T01:43:39.256Z,87.57
2022-08-17T01:46:06.717Z,73.93
2022-08-17T01:48:35.088Z,108.60
2022-08-17T01:51:02.907Z,56.88
2022-08-17T01:53:33.037Z,56.33
2022-08-17T01:56:01.759Z,60.20
2022-08-17T01:58:28.969Z,66.97
2022-08-17T02:01:00.707Z,51.70
2022-08-17T02:03:29.568Z,43.15
2022-08-17T02:05:59.828Z,42.03
2022-08-17T02:08:37.175Z,41.70
2022-08-17T02:11:11.691Z,42.97
2022-08-17T02:13:39.837Z,41.00
2022-08-17T02:16:06.979Z,38.88
2022-08-17T02:18:34.188Z,48.60
2022-08-17T02:21:02.458Z,52.55
2022-08-17T02:23:31.930Z,41.85
2022-08-17T02:26:00.579Z,45.75
2022-08-17T02:28:28.907Z,42.35
2022-08-17T02:31:03.898Z,37.70
2022-08-17T02:33:42.019Z,39.90
2022-08-17T02:36:12.137Z,41.67
2022-08-17T02:38:40.888Z,46.70
2022-08-17T02:41:08.709Z,48.17
2022-08-17T02:43:35.862Z,54.70
2022-08-17T02:46:03.291Z,79.80
2022-08-17T02:48:32.046Z,84.93
2022-08-17T02:51:00.224Z,94.05
2022-08-17T02:53:31.815Z,93.68
2022-08-17T02:56:04.133Z,96.28
2022-08-17T02:58:35.841Z,69.03
2022-08-17T03:01:07.826Z,95.00
2022-08-17T03:03:36.297Z,142.00
2022-08-17T03:06:04.066Z,207.90
2022-08-17T03:08:31.597Z,159.93
2022-08-17T03:10:59.019Z,132.55
2022-08-17T03:13:27.725Z,95.38
2022-08-17T03:15:54.911Z,106.63
2022-08-17T03:18:24.683Z,93.97
2022-08-17T03:20:54.149Z,64.68
2022-08-17T03:23:24.168Z,60.30
2022-08-17T03:25:53.175Z,69.20
2022-08-17T03:28:21.104Z,76.50
2022-08-17T03:30:48.478Z,52.85
2022-08-17T03:33:16.481Z,37.42
2022-08-17T03:35:44.107Z,53.63
2022-08-17T03:38:12.577Z,63.83
2022-08-17T03:40:59.102Z,44.97
2022-08-17T03:43:28.387Z,56.40
2022-08-17T03:46:27.252Z,89.97
2022-08-17T03:49:15.527Z,169.93
2022-08-17T03:54:46.907Z,180.55
2022-08-17T03:57:14.429Z,171.02
2022-08-17T03:59:44.903Z,153.43
2022-08-17T04:02:18.787Z,147.48
2022-08-17T04:04:48.668Z,219.07
2022-08-17T04:07:15.873Z,147.27
2022-08-17T04:09:43.356Z,170.80
2022-08-17T04:12:10.981Z,121.25
2022-08-17T04:14:51.653Z,144.20
2022-08-17T04:17:20.740Z,104.25
2022-08-17T04:19:48.835Z,54.63
2022-08-17T04:22:32.401Z,94.03
2022-08-17T04:25:21.928Z,71.60
2022-08-17T04:27:49.097Z,92.22
2022-08-17T04:30:16.715Z,187.98
2022-08-17T04:33:10.858Z,95.93
2022-08-17T04:35:42.798Z,196.52
2022-08-17T04:38:12.244Z,153.75
2022-08-17T04:40:57.948Z,118.10
2022-08-17T04:43:26.268Z,62.45
2022-08-17T04:45:56.848Z,70.55
2022-08-17T04:48:35.387Z,64.22
2022-08-17T04:51:10.186Z,38.90
2022-08-17T04:53:38.391Z,38.58
2022-08-17T04:56:06.265Z,44.10
2022-08-17T04:58:33.706Z,36.97
2022-08-17T05:01:01.739Z,43.80
2022-08-17T05:03:29.324Z,39.53
2022-08-17T05:05:56.530Z,33.47
2022-08-17T05:08:23.837Z,22.48
2022-08-17T05:10:51.238Z,22.08
2022-08-17T05:13:20.027Z,23.20
2022-08-17T05:15:48.409Z,28.10
2022-08-17T05:18:16.697Z,35.75
2022-08-17T05:20:44.018Z,26.25
2022-08-17T05:23:12.468Z,23.90
2022-08-17T05:25:41.728Z,18.92
2022-08-17T05:28:12.129Z,29.63
2022-08-17T05:30:40.358Z,22.45
2022-08-17T05:33:09.669Z,35.88
2022-08-17T05:35:38.529Z,16.75
2022-08-17T05:38:06.069Z,20.00
2022-08-17T05:40:33.579Z,15.63
2022-08-17T05:43:12.318Z,13.23
2022-08-17T05:45:54.592Z,18.45
2022-08-17T05:48:35.391Z,11.63
2022-08-17T05:51:30.470Z,13.48
2022-08-17T05:53:57.728Z,16.00
2022-08-17T05:56:57.528Z,10.73
2022-08-17T05:59:33.448Z,11.38
2022-08-17T06:02:27.168Z,16.58
2022-08-17T06:05:00.194Z,13.32
2022-08-17T06:07:42.600Z,19.13
2022-08-17T06:10:32.439Z,13.25
2022-08-17T06:13:06.008Z,10.68
2022-08-17T06:15:51.631Z,16.88
2022-08-17T06:18:21.587Z,10.93
2022-08-17T06:20:48.748Z,14.60
2022-08-17T06:23:20.099Z,15.43
2022-08-17T06:25:51.218Z,13.13
2022-08-17T06:28:44.551Z,16.42
2022-08-17T06:31:22.832Z,13.35
2022-08-17T06:33:50.550Z,17.95
2022-08-17T06:36:41.269Z,16.45
2022-08-17T06:39:17.449Z,18.08
2022-08-17T06:41:44.912Z,24.02
2022-08-17T06:44:42.288Z,20.48
2022-08-17T06:47:09.299Z,12.88
2022-08-17T06:49:55.283Z,13.57
2022-08-17T06:52:46.310Z,13.48
2022-08-17T06:55:19.640Z,16.17
2022-08-17T06:57:51.859Z,15.80
2022-08-17T07:00:20.798Z,15.48
2022-08-17T07:02:59.791Z,16.02
2022-08-17T07:05:47.440Z,16.33
2022-08-17T07:08:20.709Z,17.45
2022-08-17T07:10:53.049Z,14.75
2022-08-17T07:13:25.872Z,17.20
2022-08-17T07:15:57.151Z,16.45
2022-08-17T07:18:26.336Z,24.10
2022-08-17T07:20:58.222Z,23.75
2022-08-17T07:23:34.187Z,19.52
2022-08-17T07:26:06.227Z,18.98
2022-08-17T07:28:34.055Z,19.33
2022-08-17T07:31:01.429Z,17.88
2022-08-17T07:33:31.458Z,18.10
2022-08-17T07:36:00.207Z,17.83
2022-08-17T07:38:34.775Z,22.45
2022-08-17T07:41:14.054Z,20.80
2022-08-17T07:43:54.594Z,19.48
2022-08-17T07:46:44.405Z,27.67
2022-08-17T07:49:15.199Z,18.50
2022-08-17T07:51:42.701Z,21.05
2022-08-17T07:54:14.860Z,16.65
2022-08-17T07:56:47.082Z,18.17
2022-08-17T07:59:23.439Z,20.77
2022-08-17T08:01:58.242Z,20.42
2022-08-17T08:05:00.554Z,22.83
2022-08-17T08:07:50.685Z,17.77
2022-08-17T08:10:30.516Z,25.98
2022-08-17T08:13:20.715Z,21.52
2022-08-17T08:15:54.083Z,27.63
2022-08-17T08:18:54.750Z,19.88
2022-08-17T08:21:31.785Z,20.65
2022-08-17T08:24:21.911Z,24.67
2022-08-17T08:27:07.367Z,18.15
2022-08-17T08:30:05.520Z,17.50
2022-08-17T08:32:51.975Z,18.92
2022-08-17T08:35:26.944Z,26.50
2022-08-17T08:40:25.028Z,23.90
2022-08-17T08:42:59.247Z,19.55
2022-08-17T08:45:47.112Z,24.55
2022-08-17T08:48:53.251Z,23.70
2022-08-17T08:51:49.639Z,20.17
2022-08-17T08:54:26.541Z,16.80
2022-08-17T08:57:22.207Z,17.20
2022-08-17T08:59:58.075Z,16.83
2022-08-17T09:02:34.896Z,25.38
2022-08-17T09:05:14.206Z,29.38
2022-08-17T09:08:04.868Z,20.00
2022-08-17T09:10:42.208Z,26.52
2022-08-17T09:13:24.790Z,30.83
2022-08-17T09:16:05.279Z,32.17
2022-08-17T09:19:00.907Z,23.23
2022-08-17T09:21:28.698Z,22.08
2022-08-17T09:24:06.867Z,31.42
2022-08-17T09:26:44.309Z,32.17
2022-08-17T09:29:15.308Z,26.80
2022-08-17T09:32:04.007Z,37.25
2022-08-17T09:34:43.568Z,28.05
2022-08-17T09:37:28.771Z,27.67
2022-08-17T09:39:59.181Z,30.27
2022-08-17T09:42:46.748Z,23.73
2022-08-17T09:45:32.338Z,25.77
2022-08-17T09:51:05.074Z,19.83
2022-08-17T09:53:22.929Z,16.10
2022-08-17T09:56:09.099Z,22.02
2022-08-17T09:58:55.789Z,23.65
2022-08-17T10:01:36.968Z,21.10
2022-08-17T10:04:04.349Z,17.52
2022-08-17T10:06:35.748Z,17.88
2022-08-17T10:09:09.195Z,19.30
2022-08-17T10:12:00.508Z,18.20
2022-08-17T10:14:43.693Z,19.20
2022-08-17T10:17:21.859Z,15.60
2022-08-17T10:19:54.220Z,11.80
2022-08-17T10:22:55.024Z,18.67
2022-08-17T10:25:54.978Z,14.73
2022-08-17T10:28:28.764Z,16.15
2022-08-17T10:31:17.026Z,13.83
2022-08-17T10:33:57.989Z,14.05
2022-08-17T10:36:47.668Z,17.85
2022-08-17T10:39:21.230Z,10.45
2022-08-17T10:41:51.096Z,11.93
2022-08-17T10:44:38.829Z,9.23
2022-08-17T10:47:09.557Z,10.27
2022-08-17T10:49:45.998Z,15.05
2022-08-17T10:52:28.558Z,15.00
2022-08-17T10:54:59.129Z,15.95
2022-08-17T10:57:29.752Z,13.07
2022-08-17T11:00:01.098Z,10.05
2022-08-17T11:02:50.364Z,13.18
2022-08-17T11:05:18.137Z,9.93
2022-08-17T11:07:58.972Z,12.77
2022-08-17T11:10:35.695Z,13.88
2022-08-17T11:13:06.133Z,17.23
2022-08-17T11:15:52.228Z,11.90
2022-08-17T11:18:36.867Z,18.75
2022-08-17T11:21:07.281Z,18.88
2022-08-17T11:23:43.818Z,21.20
2022-08-17T11:26:26.337Z,13.35
2022-08-17T11:28:59.077Z,16.08
2022-08-17T11:31:39.102Z,14.02
2022-08-17T11:34:13.629Z,15.00
2022-08-17T11:37:01.278Z,19.55
2022-08-17T11:39:37.972Z,20.48
2022-08-17T11:42:12.192Z,14.25
2022-08-17T11:44:58.496Z,10.50
2022-08-17T11:48:27.642Z,11.05
2022-08-17T11:51:17.287Z,14.33
2022-08-17T11:53:46.060Z,14.23
2022-08-17T11:56:34.607Z,14.23
2022-08-17T11:59:02.388Z,13.88
2022-08-17T12:01:32.415Z,13.38
2022-08-17T12:04:18.165Z,14.57
2022-08-17T12:06:48.596Z,8.68
2022-08-17T12:09:25.198Z,11.73
2022-08-17T12:12:11.927Z,13.15
2022-08-17T12:17:41.586Z,13.93
2022-08-17T12:20:11.942Z,12.05
2022-08-17T12:22:45.477Z,9.50
2022-08-17T12:25:22.607Z,8.60
2022-08-17T12:28:04.967Z,17.38
2022-08-17T12:30:35.271Z,12.88
2022-08-17T12:33:03.129Z,7.93
2022-08-17T12:35:39.092Z,7.85
2022-08-17T12:38:31.876Z,16.85
2022-08-17T12:40:58.118Z,8.55
2022-08-17T12:43:27.758Z,6.15
2022-08-17T12:46:01.227Z,7.72
2022-08-17T12:48:59.260Z,6.78
2022-08-17T12:51:29.299Z,9.30
2022-08-17T12:53:57.016Z,17.70
2022-08-17T12:56:24.306Z,8.07
2022-08-17T12:58:54.354Z,9.73
2022-08-17T13:01:23.616Z,11.50
2022-08-17T13:03:52.647Z,6.00
2022-08-17T13:06:31.816Z,7.93
2022-08-17T13:09:12.836Z,8.18
2022-08-17T13:11:55.477Z,9.60
2022-08-17T13:14:22.949Z,10.27
2022-08-17T13:16:56.286Z,8.77
2022-08-17T13:19:40.539Z,8.30
2022-08-17T13:24:58.396Z,7.82
2022-08-17T13:27:27.028Z,7.85
2022-08-17T13:29:57.480Z,7.63
2022-08-17T13:32:31.340Z,11.27
2022-08-17T13:35:14.339Z,7.82
2022-08-17T13:37:56.407Z,9.43
2022-08-17T13:40:23.607Z,10.98
2022-08-17T13:42:55.776Z,10.75
2022-08-17T13:45:36.369Z,10.52
2022-08-17T13:48:04.430Z,15.85
2022-08-17T13:50:31.637Z,10.65
2022-08-17T13:52:59.209Z,13.27
2022-08-17T13:55:28.497Z,11.82
2022-08-17T13:58:03.639Z,9.77
2022-08-17T14:00:36.603Z,10.52
2022-08-17T14:03:04.816Z,9.70
2022-08-17T14:05:32.492Z,8.48
2022-08-17T14:08:02.019Z,9.32
2022-08-17T14:10:36.783Z,14.60
2022-08-17T14:13:05.289Z,15.93
2022-08-17T14:15:54.868Z,9.27
2022-08-17T14:18:35.662Z,12.93
2022-08-17T14:21:09.694Z,12.15
2022-08-17T14:23:37.429Z,11.23
2022-08-17T14:26:05.208Z,13.60
2022-08-17T14:28:32.484Z,11.60
2022-08-17T14:31:00.996Z,15.13
2022-08-17T14:33:28.723Z,16.48
2022-08-17T14:35:57.692Z,11.40
2022-08-17T14:38:25.196Z,11.82
2022-08-17T14:40:52.769Z,15.35
2022-08-17T14:43:21.186Z,9.80
2022-08-17T14:45:48.784Z,15.35
2022-08-17T14:48:16.148Z,9.75
2022-08-17T14:50:44.003Z,11.93
2022-08-17T14:53:12.784Z,11.25
2022-08-17T14:55:40.718Z,14.80
2022-08-17T14:58:09.354Z,12.38
2022-08-17T15:00:37.382Z,15.43
2022-08-17T15:03:05.088Z,13.43
2022-08-17T15:05:35.288Z,12.80
2022-08-17T15:08:03.386Z,15.65
2022-08-17T15:10:31.027Z,12.18
2022-08-17T15:12:58.818Z,10.90
2022-08-17T15:15:26.879Z,13.45
2022-08-17T15:17:54.179Z,10.93
2022-08-17T15:20:24.040Z,10.77
2022-08-17T15:22:55.690Z,11.23
2022-08-17T15:25:24.398Z,12.10
2022-08-17T15:27:52.302Z,13.23
2022-08-17T15:30:20.523Z,10.20
2022-08-17T15:32:51.144Z,15.88
2022-08-17T15:35:28.549Z,13.00
2022-08-17T15:38:06.103Z,12.85
2022-08-17T15:40:38.887Z,11.18
2022-08-17T15:43:07.190Z,16.75
2022-08-17T15:45:34.873Z,13.20
2022-08-17T15:48:02.722Z,12.32
2022-08-17T15:50:30.016Z,18.27
2022-08-17T15:52:58.688Z,18.25
2022-08-17T15:55:27.649Z,17.25
2022-08-17T15:57:55.050Z,13.07
2022-08-17T16:00:24.243Z,13.63
2022-08-17T16:03:45.965Z,15.35
2022-08-17T16:05:40.768Z,16.48
2022-08-17T16:08:11.559Z,15.85
2022-08-17T16:10:41.668Z,13.93
2022-08-17T16:13:17.489Z,16.67
2022-08-17T16:15:53.073Z,17.50
2022-08-17T16:18:31.219Z,14.75
2022-08-17T16:21:19.793Z,17.98
2022-08-17T16:23:48.061Z,18.30
2022-08-17T16:26:16.198Z,17.50
2022-08-17T16:28:43.457Z,16.70
2022-08-17T16:31:10.649Z,22.67
2022-08-17T16:33:39.828Z,19.17
2022-08-17T16:36:10.568Z,30.33
2022-08-17T16:38:38.799Z,25.33
2022-08-17T16:41:06.360Z,23.70
2022-08-17T16:43:34.279Z,22.73
2022-08-17T16:46:02.087Z,20.95
2022-08-17T16:48:29.887Z,21.20
2022-08-17T16:51:00.313Z,20.55
2022-08-17T16:53:31.791Z,23.75
2022-08-17T16:55:59.040Z,22.73
2022-08-17T16:58:26.378Z,28.42
2022-08-17T17:00:54.564Z,20.65
2022-08-17T17:03:24.971Z,25.95
2022-08-17T17:06:07.295Z,22.88
2022-08-17T17:08:35.144Z,25.40
2022-08-17T17:11:16.376Z,23.45
2022-08-17T17:14:01.900Z,22.58
2022-08-17T17:16:29.128Z,28.55
2022-08-17T17:19:07.278Z,21.80
2022-08-17T17:21:47.077Z,21.83
2022-08-17T17:24:17.440Z,23.33
2022-08-17T17:26:52.918Z,27.95
2022-08-17T17:29:28.657Z,27.17
2022-08-17T17:32:31.279Z,49.47
2022-08-17T17:35:06.959Z,37.08
2022-08-17T17:37:35.098Z,52.00
2022-08-17T17:40:23.284Z,26.70
2022-08-17T17:42:52.628Z,26.33
2022-08-17T17:45:21.861Z,31.65
2022-08-17T17:47:49.549Z,32.08
2022-08-17T17:50:18.427Z,29.17
2022-08-17T17:52:56.348Z,28.77
2022-08-17T17:55:30.178Z,35.60
2022-08-17T17:58:06.828Z,27.15
2022-08-17T18:00:59.888Z,30.83
2022-08-17T18:03:46.293Z,32.00
2022-08-17T18:06:18.658Z,31.08
2022-08-17T18:08:52.248Z,32.13
2022-08-17T18:11:25.329Z,37.22
2022-08-17T18:13:54.428Z,38.38
2022-08-17T18:16:22.829Z,34.92
2022-08-17T18:18:52.468Z,38.13
2022-08-17T18:21:21.769Z,31.92
2022-08-17T18:23:54.898Z,35.67
2022-08-17T18:26:42.047Z,37.42
2022-08-17T18:29:34.549Z,33.45
2022-08-17T18:32:17.999Z,33.88
2022-08-17T18:34:48.593Z,35.55
2022-08-17T18:37:33.235Z,33.42
2022-08-17T18:40:20.416Z,34.35
2022-08-17T18:43:00.367Z,39.08
2022-08-17T18:45:47.568Z,42.60
2022-08-17T18:48:37.019Z,42.88
2022-08-17T18:51:35.739Z,34.88
2022-08-17T18:54:19.352Z,40.33
2022-08-17T18:56:56.956Z,44.80
2022-08-17T18:59:38.458Z,48.72
2022-08-17T19:02:16.107Z,35.42
2022-08-17T19:05:14.229Z,39.75
2022-08-17T19:07:46.459Z,35.95
2022-08-17T19:10:17.910Z,34.38
2022-08-17T19:12:55.312Z,39.45
2022-08-17T19:15:34.933Z,46.60
2022-08-17T19:18:20.982Z,44.95
2022-08-17T19:20:55.200Z,39.30
2022-08-17T19:23:54.137Z,43.05
2022-08-17T19:26:53.797Z,33.83
2022-08-17T19:29:19.605Z,34.88
2022-08-17T19:31:50.505Z,37.35
2022-08-17T19:34:31.153Z,39.55
2022-08-17T19:37:04.134Z,37.85
2022-08-17T19:39:43.447Z,42.50
2022-08-17T19:42:26.217Z,47.78
2022-08-17T19:44:56.673Z,56.22
2022-08-17T19:47:54.370Z,52.55
2022-08-17T19:50:31.349Z,49.80
2022-08-17T19:53:04.047Z,58.35
2022-08-17T19:55:43.722Z,58.42
2022-08-17T19:58:18.578Z,58.20
2022-08-17T20:00:49.740Z,61.40
2022-08-17T20:03:26.118Z,51.78
2022-08-17T20:06:13.425Z,61.80
2022-08-17T20:08:52.709Z,62.58
2022-08-17T20:11:52.330Z,64.35
2022-08-17T20:14:21.407Z,56.92
2022-08-17T20:16:48.648Z,54.75
2022-08-17T20:19:24.398Z,50.35
2022-08-17T20:21:58.132Z,48.22
2022-08-17T20:24:30.258Z,48.38
2022-08-17T20:26:59.819Z,51.65
2022-08-17T20:29:40.319Z,55.67
2022-08-17T20:32:13.890Z,59.85
2022-08-17T20:34:45.110Z,63.58
2022-08-17T20:37:15.468Z,70.78
2022-08-17T20:39:44.859Z,95.85
2022-08-17T20:42:21.375Z,104.18
2022-08-17T20:44:50.207Z,110.68
2022-08-17T20:47:29.598Z,90.70
2022-08-17T20:50:02.286Z,89.93
2022-08-17T20:52:51.111Z,84.03
2022-08-17T20:55:34.080Z,98.65
2022-08-17T20:58:16.598Z,120.57
2022-08-17T21:00:50.470Z,104.78
2022-08-17T21:03:50.148Z,100.82
2022-08-17T21:06:19.879Z,86.07
2022-08-17T21:08:53.924Z,99.55
2022-08-17T21:12:03.034Z,90.43
2022-08-17T21:14:34.407Z,72.97
2022-08-17T21:17:01.856Z,85.55
2022-08-17T21:19:54.197Z,85.82
2022-08-17T21:22:31.299Z,73.07
2022-08-17T21:25:24.978Z,83.50
2022-08-17T21:28:12.737Z,75.13
2022-08-17T21:30:41.058Z,81.07
2022-08-17T21:33:21.227Z,71.65
2022-08-17T21:36:00.901Z,68.15
2022-08-17T21:39:01.329Z,67.18
2022-08-17T21:41:33.988Z,73.30
2022-08-17T21:44:05.491Z,63.22
2022-08-17T21:46:37.169Z,58.03
2022-08-17T21:49:13.685Z,40.50
2022-08-17T21:51:45.013Z,40.40
2022-08-17T21:54:15.310Z,48.45
2022-08-17T21:56:46.097Z,45.90
2022-08-17T21:59:16.380Z,55.42
2022-08-17T22:01:43.540Z,52.88
2022-08-17T22:04:11.655Z,70.78
2022-08-17T22:06:41.399Z,62.00
2022-08-17T22:09:17.816Z,56.95
2022-08-17T22:12:00.831Z,59.92
2022-08-17T22:14:52.755Z,46.15
2022-08-17T22:17:21.494Z,42.10
2022-08-17T22:19:51.066Z,62.05
2022-08-17T22:22:26.613Z,69.80
2022-08-17T22:24:57.635Z,59.55
2022-08-17T22:27:43.594Z,52.33
2022-08-17T22:30:16.684Z,61.47
2022-08-17T22:32:45.694Z,56.33
2022-08-17T22:35:33.576Z,68.07
2022-08-17T22:38:36.406Z,70.05
2022-08-17T22:41:23.975Z,68.03
2022-08-17T22:43:52.086Z,76.63
2022-08-17T22:46:24.106Z,72.32
2022-08-17T22:48:55.124Z,69.55
2022-08-17T22:51:23.855Z,67.65
2022-08-17T22:54:31.570Z,53.45
2022-08-17T22:57:19.765Z,45.80
2022-08-17T22:59:49.086Z,47.47
2022-08-17T23:02:19.710Z,52.88
2022-08-17T23:04:48.697Z,51.80
2022-08-17T23:07:16.075Z,57.50
2022-08-17T23:09:44.646Z,52.35
2022-08-17T23:12:15.115Z,54.58
2022-08-17T23:14:45.846Z,56.70
2022-08-17T23:17:13.666Z,60.78
2022-08-17T23:19:40.969Z,60.88
2022-08-17T23:22:09.977Z,57.53
2022-08-17T23:24:44.496Z,56.30
2022-08-17T23:27:11.975Z,64.80
2022-08-17T23:29:42.375Z,65.80
2022-08-17T23:32:11.927Z,73.85
2022-08-17T23:34:39.856Z,69.30
2022-08-17T23:37:07.834Z,70.68
2022-08-17T23:39:35.273Z,66.70
2022-08-17T23:42:05.535Z,70.93
2022-08-17T23:44:34.026Z,66.32
2022-08-17T23:47:03.928Z,62.22
2022-08-17T23:49:31.995Z,53.25
2022-08-17T23:52:01.776Z,49.00
2022-08-17T23:54:33.859Z,43.88
2022-08-17T23:57:01.747Z,40.92
2022-08-17T23:59:29.479Z,44.22
